createdAt,value
2022-09-15T00:00:30.007Z,1.60
2022-09-15T00:03:35.517Z,1.80
2022-09-15T00:06:23.601Z,1.70
2022-09-15T00:09:11.712Z,1.80
2022-09-15T00:12:00.106Z,1.70
2022-09-15T00:14:47.942Z,1.70
2022-09-15T00:17:35.886Z,1.60
2022-09-15T00:20:23.863Z,1.70
2022-09-15T00:23:14.884Z,1.90
2022-09-15T00:26:08.187Z,1.80
2022-09-15T00:28:58.677Z,1.90
2022-09-15T00:31:46.631Z,1.60
2022-09-15T00:34:34.906Z,1.50
2022-09-15T00:37:22.940Z,2.00
2022-09-15T00:40:11.191Z,1.80
2022-09-15T00:42:58.879Z,1.90
2022-09-15T00:45:47.225Z,1.90
2022-09-15T00:48:37.763Z,1.90
2022-09-15T00:51:41.400Z,1.80
2022-09-15T00:54:41.456Z,1.90
2022-09-15T00:57:32.476Z,1.90
2022-09-15T01:00:24.179Z,1.70
2022-09-15T01:03:12.015Z,1.80
2022-09-15T01:06:41.247Z,1.90
2022-09-15T01:09:48.032Z,1.70
2022-09-15T01:12:36.037Z,1.90
2022-09-15T01:15:32.831Z,1.70
2022-09-15T01:18:29.506Z,2.20
2022-09-15T01:21:35.827Z,1.70
2022-09-15T01:24:41.729Z,2.00
2022-09-15T01:28:33.132Z,2.10
2022-09-15T01:32:22.649Z,1.70
2022-09-15T01:35:22.666Z,1.90
2022-09-15T01:38:26.783Z,2.00
2022-09-15T01:42:10.238Z,2.00
2022-09-15T01:45:07.676Z,1.60
2022-09-15T01:47:59.888Z,2.00
2022-09-15T01:50:54.225Z,1.80
2022-09-15T01:53:42.169Z,2.60
2022-09-15T01:56:30.085Z,2.10
2022-09-15T01:59:18.115Z,2.10
2022-09-15T02:02:20.791Z,2.00
2022-09-15T02:05:20.915Z,2.10
2022-09-15T02:08:28.700Z,1.90
2022-09-15T02:11:19.837Z,1.90
2022-09-15T02:14:22.309Z,2.30
2022-09-15T02:17:17.326Z,2.20
2022-09-15T02:20:20.729Z,2.20
2022-09-15T02:23:18.983Z,2.00
2022-09-15T02:26:16.971Z,2.00
2022-09-15T02:29:10.248Z,2.30
2022-09-15T02:32:06.779Z,2.20
2022-09-15T02:34:57.303Z,2.10
2022-09-15T02:37:46.873Z,2.10
2022-09-15T02:40:36.335Z,2.20
2022-09-15T02:43:24.563Z,2.10
2022-09-15T02:46:14.311Z,2.20
2022-09-15T02:49:03.521Z,2.30
2022-09-15T02:51:51.178Z,2.30
2022-09-15T02:54:39.203Z,2.50
2022-09-15T02:57:27.098Z,2.00
2022-09-15T03:00:16.990Z,2.20
2022-09-15T03:03:04.915Z,2.50
2022-09-15T03:05:52.833Z,2.00
2022-09-15T03:08:41.445Z,2.20
2022-09-15T03:11:31.424Z,2.10
2022-09-15T03:14:19.583Z,1.90
2022-09-15T03:17:07.423Z,2.30
2022-09-15T03:19:55.536Z,2.10
2022-09-15T03:22:47.787Z,1.90
2022-09-15T03:25:36.333Z,2.30
2022-09-15T03:28:24.379Z,2.00
2022-09-15T03:31:12.461Z,2.20
2022-09-15T03:34:00.316Z,2.30
2022-09-15T03:36:48.160Z,2.00
2022-09-15T03:39:36.036Z,2.20
2022-09-15T03:42:24.024Z,2.40
2022-09-15T03:45:11.889Z,1.90
2022-09-15T03:47:59.844Z,2.10
2022-09-15T03:50:48.111Z,1.90
2022-09-15T03:53:39.340Z,2.30
2022-09-15T03:56:33.467Z,2.20
2022-09-15T03:59:21.724Z,2.00
2022-09-15T04:02:09.781Z,2.10
2022-09-15T04:04:57.732Z,2.20
2022-09-15T04:07:45.625Z,2.00
2022-09-15T04:10:33.931Z,1.70
2022-09-15T04:13:27.922Z,2.20
2022-09-15T04:16:19.749Z,1.80
2022-09-15T04:19:07.715Z,2.20
2022-09-15T04:21:55.335Z,2.00
2022-09-15T04:24:44.304Z,2.20
2022-09-15T04:27:34.626Z,1.60
2022-09-15T04:30:22.352Z,2.00
2022-09-15T04:33:10.270Z,1.70
2022-09-15T04:36:04.426Z,2.00
2022-09-15T04:38:52.723Z,1.80
2022-09-15T04:41:40.707Z,1.70
2022-09-15T04:44:29.317Z,1.60
2022-09-15T04:47:17.750Z,1.90
2022-09-15T04:50:06.434Z,2.40
2022-09-15T04:52:53.926Z,1.70
2022-09-15T04:55:42.646Z,2.10
2022-09-15T04:58:30.787Z,1.70
2022-09-15T05:01:31.247Z,1.90
2022-09-15T05:04:19.228Z,1.90
2022-09-15T05:07:07.425Z,1.80
2022-09-15T05:09:55.640Z,2.30
2022-09-15T05:12:43.518Z,1.90
2022-09-15T05:15:33.724Z,1.70
2022-09-15T05:18:21.740Z,1.70
2022-09-15T05:21:13.519Z,2.00
2022-09-15T05:24:01.824Z,1.90
2022-09-15T05:26:50.113Z,1.70
2022-09-15T05:29:37.803Z,1.60
2022-09-15T05:32:26.440Z,1.70
2022-09-15T05:35:14.238Z,1.50
2022-09-15T05:38:02.208Z,1.60
2022-09-15T05:40:50.771Z,1.50
2022-09-15T05:43:40.157Z,1.60
2022-09-15T05:46:29.535Z,1.50
2022-09-15T05:49:17.491Z,1.40
2022-09-15T05:52:05.477Z,1.30
2022-09-15T05:54:58.327Z,1.60
2022-09-15T05:57:47.272Z,1.70
2022-09-15T06:00:35.496Z,1.70
2022-09-15T06:03:28.686Z,1.50
2022-09-15T06:06:18.241Z,1.30
2022-09-15T06:09:06.788Z,1.50
2022-09-15T06:11:54.296Z,1.50
2022-09-15T06:14:43.578Z,2.30
2022-09-15T06:17:34.288Z,2.60
2022-09-15T06:20:27.021Z,1.60
2022-09-15T06:23:15.042Z,1.60
2022-09-15T06:26:16.844Z,1.60
2022-09-15T06:29:05.970Z,1.70
2022-09-15T06:32:03.254Z,1.70
2022-09-15T06:34:51.220Z,1.50
2022-09-15T06:37:41.975Z,1.50
2022-09-15T06:40:30.857Z,2.20
2022-09-15T06:43:18.810Z,1.50
2022-09-15T06:46:29.113Z,1.70
2022-09-15T06:49:18.112Z,1.60
2022-09-15T06:52:14.672Z,1.80
2022-09-15T06:55:21.601Z,1.60
2022-09-15T06:58:09.376Z,1.70
2022-09-15T07:01:04.279Z,1.90
2022-09-15T07:03:52.918Z,1.30
2022-09-15T07:06:40.837Z,1.30
2022-09-15T07:09:28.887Z,1.40
2022-09-15T07:12:16.680Z,1.30
2022-09-15T07:15:05.498Z,1.30
2022-09-15T07:17:53.911Z,1.20
2022-09-15T07:20:42.102Z,1.20
2022-09-15T07:23:30.214Z,1.30
2022-09-15T07:26:27.516Z,1.20
2022-09-15T07:29:15.171Z,1.10
2022-09-15T07:32:03.533Z,1.00
2022-09-15T07:34:54.499Z,2.00
2022-09-15T07:37:44.869Z,1.30
2022-09-15T07:40:32.659Z,1.10
2022-09-15T07:43:21.986Z,1.00
2022-09-15T07:46:11.173Z,0.90
2022-09-15T07:49:03.348Z,2.00
2022-09-15T07:51:52.760Z,0.90
2022-09-15T07:54:40.491Z,1.20
2022-09-15T07:57:28.426Z,2.00
2022-09-15T08:00:17.689Z,1.10
2022-09-15T08:03:05.580Z,0.90
2022-09-15T08:06:01.891Z,0.80
2022-09-15T08:08:53.988Z,1.00
2022-09-15T08:11:54.963Z,1.00
2022-09-15T08:14:45.048Z,0.90
2022-09-15T08:17:35.610Z,0.90
2022-09-15T08:20:29.075Z,1.50
2022-09-15T08:23:20.986Z,1.10
2022-09-15T08:26:14.557Z,1.30
2022-09-15T08:29:16.578Z,1.20
2022-09-15T08:32:08.267Z,1.00
2022-09-15T08:35:00.099Z,1.40
2022-09-15T08:37:47.919Z,0.90
2022-09-15T08:40:38.067Z,1.30
2022-09-15T08:43:30.323Z,1.10
2022-09-15T08:46:32.170Z,1.40
2022-09-15T08:49:47.814Z,1.30
2022-09-15T08:53:02.192Z,1.10
2022-09-15T08:55:54.419Z,1.20
2022-09-15T08:58:42.332Z,1.10
2022-09-15T09:02:07.131Z,1.50
2022-09-15T09:05:13.967Z,1.20
2022-09-15T09:08:07.979Z,1.30
2022-09-15T09:11:19.597Z,1.10
2022-09-15T09:14:31.885Z,1.30
2022-09-15T09:17:35.535Z,0.90
2022-09-15T09:21:13.294Z,1.00
2022-09-15T09:24:27.778Z,1.40
2022-09-15T09:27:20.697Z,1.20
2022-09-15T09:30:21.347Z,1.40
2022-09-15T09:33:31.023Z,1.20
2022-09-15T09:36:19.890Z,1.60
2022-09-15T09:39:15.412Z,1.60
2022-09-15T09:42:05.969Z,1.40
2022-09-15T09:44:54.738Z,1.10
2022-09-15T09:47:43.376Z,1.30
2022-09-15T09:50:43.250Z,1.30
2022-09-15T09:53:33.925Z,1.20
2022-09-15T09:56:27.454Z,1.20
2022-09-15T09:59:32.055Z,1.00
2022-09-15T10:02:26.038Z,1.30
2022-09-15T10:05:20.804Z,1.00
2022-09-15T10:08:20.593Z,1.20
2022-09-15T10:11:10.740Z,1.00
2022-09-15T10:13:59.027Z,1.30
2022-09-15T10:17:11.032Z,1.40
2022-09-15T10:19:59.500Z,1.20
2022-09-15T10:22:47.454Z,1.20
2022-09-15T10:25:58.686Z,1.80
2022-09-15T10:29:14.277Z,1.40
2022-09-15T10:32:24.972Z,1.50
2022-09-15T10:35:19.543Z,1.00
2022-09-15T10:38:14.210Z,1.20
2022-09-15T10:41:29.763Z,1.00
2022-09-15T10:45:22.840Z,1.10
2022-09-15T10:48:46.799Z,1.80
2022-09-15T10:52:16.332Z,2.10
2022-09-15T10:55:52.611Z,2.00
2022-09-15T10:59:52.884Z,1.40
2022-09-15T11:03:25.300Z,0.90
2022-09-15T11:06:40.327Z,1.00
2022-09-15T11:09:46.622Z,1.20
2022-09-15T11:13:01.619Z,1.10
2022-09-15T11:16:25.864Z,1.10
2022-09-15T11:19:35.503Z,1.10
2022-09-15T11:22:31.611Z,1.20
2022-09-15T11:25:28.239Z,1.20
2022-09-15T11:28:28.294Z,1.00
2022-09-15T11:31:24.596Z,1.30
2022-09-15T11:34:27.088Z,1.30
2022-09-15T11:37:21.625Z,1.00
2022-09-15T11:40:33.825Z,1.20
2022-09-15T11:43:50.887Z,1.60
2022-09-15T11:47:14.260Z,1.20
2022-09-15T11:50:11.035Z,1.10
2022-09-15T11:53:09.423Z,0.90
2022-09-15T11:56:20.642Z,1.10
2022-09-15T11:59:20.969Z,1.30
2022-09-15T12:02:31.031Z,1.00
2022-09-15T12:06:04.498Z,1.00
2022-09-15T12:09:02.597Z,1.00
2022-09-15T12:12:04.834Z,1.10
2022-09-15T12:14:53.122Z,1.00
2022-09-15T12:18:37.166Z,0.70
2022-09-15T12:21:36.011Z,1.10
2022-09-15T12:24:48.508Z,1.20
2022-09-15T12:27:36.402Z,1.00
2022-09-15T12:30:42.944Z,1.30
2022-09-15T12:33:59.585Z,1.10
2022-09-15T12:36:53.424Z,1.20
2022-09-15T12:39:42.195Z,1.30
2022-09-15T12:42:32.264Z,1.30
2022-09-15T12:45:27.333Z,1.10
2022-09-15T12:48:34.237Z,1.60
2022-09-15T12:51:28.116Z,1.20
2022-09-15T12:54:27.880Z,0.90
2022-09-15T12:57:36.985Z,1.10
2022-09-15T13:00:54.839Z,1.20
2022-09-15T13:07:52.969Z,1.10
2022-09-15T13:11:09.510Z,1.20
2022-09-15T13:14:03.961Z,1.10
2022-09-15T13:17:06.748Z,1.10
2022-09-15T13:19:59.972Z,1.10
2022-09-15T13:22:56.456Z,1.30
2022-09-15T13:25:46.631Z,1.50
2022-09-15T13:28:35.383Z,1.20
2022-09-15T13:31:53.525Z,1.80
2022-09-15T13:35:07.840Z,1.30
2022-09-15T13:38:16.928Z,1.40
2022-09-15T13:41:40.379Z,1.30
2022-09-15T13:44:37.673Z,1.40
2022-09-15T13:47:31.793Z,1.30
2022-09-15T13:50:41.553Z,1.30
2022-09-15T13:53:43.645Z,1.20
2022-09-15T13:56:40.069Z,1.20
2022-09-15T13:59:33.141Z,1.30
2022-09-15T14:02:21.265Z,1.10
2022-09-15T14:05:09.582Z,1.20
2022-09-15T14:08:04.344Z,1.00
2022-09-15T14:10:58.435Z,1.20
2022-09-15T14:13:51.264Z,1.10
2022-09-15T14:16:39.915Z,1.40
2022-09-15T14:19:36.901Z,1.10
2022-09-15T14:25:51.684Z,1.30
2022-09-15T14:29:02.256Z,1.30
2022-09-15T14:32:07.367Z,1.40
2022-09-15T14:34:59.988Z,1.20
2022-09-15T14:38:00.010Z,1.50
2022-09-15T14:40:56.965Z,1.20
2022-09-15T14:43:48.967Z,1.40
2022-09-15T14:46:38.464Z,1.30
2022-09-15T14:49:29.027Z,1.00
2022-09-15T14:52:36.112Z,1.40
2022-09-15T14:55:50.742Z,1.30
2022-09-15T14:58:52.980Z,1.30
2022-09-15T15:02:20.332Z,1.50
2022-09-15T15:05:22.833Z,1.40
2022-09-15T15:08:39.458Z,1.50
2022-09-15T15:11:29.556Z,1.50
2022-09-15T15:14:18.739Z,1.30
2022-09-15T15:17:07.017Z,1.50
2022-09-15T15:20:08.849Z,1.70
2022-09-15T15:23:26.008Z,1.80
2022-09-15T15:26:42.660Z,1.30
2022-09-15T15:29:48.432Z,1.50
2022-09-15T15:32:46.126Z,1.40
2022-09-15T15:35:35.943Z,1.50
2022-09-15T15:38:25.643Z,1.40
2022-09-15T15:41:35.622Z,1.60
2022-09-15T15:44:29.022Z,1.80
2022-09-15T15:47:19.808Z,1.50
2022-09-15T15:50:28.502Z,1.40
2022-09-15T15:53:16.687Z,1.60
2022-09-15T15:56:04.894Z,1.60
2022-09-15T15:58:53.157Z,1.70
2022-09-15T16:01:42.110Z,1.60
2022-09-15T16:04:35.126Z,1.60
2022-09-15T16:07:46.729Z,1.60
2022-09-15T16:10:51.096Z,1.60
2022-09-15T16:13:39.685Z,1.50
2022-09-15T16:16:28.160Z,1.50
2022-09-15T16:19:16.649Z,1.40
2022-09-15T16:22:05.498Z,1.30
2022-09-15T16:24:55.943Z,1.80
2022-09-15T16:27:43.878Z,1.60
2022-09-15T16:30:33.277Z,1.80
2022-09-15T16:33:21.167Z,1.70
2022-09-15T16:36:16.212Z,1.80
2022-09-15T16:39:04.267Z,1.60
2022-09-15T16:41:52.959Z,1.60
2022-09-15T16:44:41.049Z,2.00
2022-09-15T16:47:28.843Z,1.70
2022-09-15T16:50:31.149Z,1.70
2022-09-15T16:53:31.123Z,1.90
2022-09-15T16:56:19.569Z,1.70
2022-09-15T16:59:26.850Z,1.60
2022-09-15T17:02:16.344Z,1.90
2022-09-15T17:05:25.123Z,1.60
2022-09-15T17:08:14.891Z,1.90
2022-09-15T17:11:05.265Z,2.60
2022-09-15T17:13:53.455Z,2.20
2022-09-15T17:16:41.371Z,2.40
2022-09-15T17:19:29.266Z,2.40
2022-09-15T17:22:17.114Z,2.60
2022-09-15T17:25:37.445Z,2.40
2022-09-15T17:28:36.710Z,2.40
2022-09-15T17:31:25.286Z,2.20
2022-09-15T17:34:14.568Z,2.80
2022-09-15T17:37:02.293Z,2.30
2022-09-15T17:39:58.697Z,2.70
2022-09-15T17:43:01.891Z,2.30
2022-09-15T17:46:07.969Z,2.40
2022-09-15T17:48:55.956Z,2.60
2022-09-15T17:51:43.988Z,2.80
2022-09-15T17:54:32.352Z,2.70
2022-09-15T17:57:32.120Z,2.70
2022-09-15T18:01:08.835Z,2.50
2022-09-15T18:04:13.382Z,3.00
2022-09-15T18:07:01.301Z,2.30
2022-09-15T18:09:51.672Z,3.00
2022-09-15T18:12:43.979Z,2.40
2022-09-15T18:15:35.610Z,2.80
2022-09-15T18:18:32.237Z,2.70
2022-09-15T18:21:29.869Z,2.60
2022-09-15T18:24:18.030Z,2.50
2022-09-15T18:27:06.494Z,2.70
2022-09-15T18:29:56.965Z,2.30
2022-09-15T18:32:45.507Z,2.70
2022-09-15T18:35:35.229Z,2.00
2022-09-15T18:38:23.850Z,2.10
2022-09-15T18:41:11.985Z,1.80
2022-09-15T18:43:59.573Z,1.90
2022-09-15T18:46:47.501Z,1.90
2022-09-15T18:49:35.562Z,2.10
2022-09-15T18:52:23.708Z,2.00
2022-09-15T18:55:22.055Z,2.20
2022-09-15T18:58:14.306Z,2.20
2022-09-15T19:01:06.100Z,2.00
2022-09-15T19:03:54.409Z,2.20
2022-09-15T19:06:42.783Z,1.90
2022-09-15T19:09:31.702Z,1.80
2022-09-15T19:15:11.532Z,2.00
2022-09-15T19:21:21.872Z,1.90
2022-09-15T19:24:43.134Z,2.00
2022-09-15T19:27:31.087Z,2.20
2022-09-15T19:30:19.245Z,2.00
2022-09-15T19:33:11.293Z,2.00
2022-09-15T19:36:26.927Z,2.20
2022-09-15T19:39:15.401Z,1.70
2022-09-15T19:42:05.598Z,2.00
2022-09-15T19:44:54.447Z,1.90
2022-09-15T19:47:42.557Z,2.00
2022-09-15T19:50:30.494Z,2.20
2022-09-15T19:53:18.788Z,2.20
2022-09-15T19:56:08.035Z,2.60
2022-09-15T19:58:58.458Z,1.90
2022-09-15T20:01:46.849Z,2.50
2022-09-15T20:04:53.263Z,1.90
2022-09-15T20:07:41.223Z,1.90
2022-09-15T20:10:31.736Z,2.20
2022-09-15T20:13:20.580Z,2.40
2022-09-15T20:16:08.584Z,2.10
2022-09-15T20:18:57.022Z,1.80
2022-09-15T20:21:51.574Z,3.00
2022-09-15T20:24:43.117Z,2.00
2022-09-15T20:27:32.609Z,2.20
2022-09-15T20:30:21.523Z,1.90
2022-09-15T20:33:12.538Z,1.70
2022-09-15T20:36:07.703Z,1.80
2022-09-15T20:38:56.763Z,1.70
2022-09-15T20:41:55.793Z,1.70
2022-09-15T20:44:47.247Z,1.60
2022-09-15T20:47:35.323Z,1.70
2022-09-15T20:50:23.180Z,2.00
2022-09-15T20:53:11.232Z,1.60
2022-09-15T20:56:02.721Z,1.60
2022-09-15T20:58:51.198Z,1.80
2022-09-15T21:01:40.149Z,1.80
2022-09-15T21:04:28.368Z,1.50
2022-09-15T21:07:16.972Z,1.90
2022-09-15T21:10:05.429Z,1.30
2022-09-15T21:12:54.339Z,1.50
2022-09-15T21:15:42.844Z,1.90
2022-09-15T21:18:36.906Z,1.80
2022-09-15T21:21:31.283Z,1.00
2022-09-15T21:24:22.620Z,1.30
2022-09-15T21:27:27.026Z,1.50
2022-09-15T21:30:15.135Z,1.80
2022-09-15T21:33:03.056Z,1.30
2022-09-15T21:35:51.148Z,1.50
2022-09-15T21:38:44.015Z,1.70
2022-09-15T21:41:31.776Z,1.50
2022-09-15T21:44:19.709Z,1.80
2022-09-15T21:47:07.211Z,1.30
2022-09-15T21:49:55.330Z,1.70
2022-09-15T21:52:43.522Z,1.80
2022-09-15T21:55:31.307Z,1.30
2022-09-15T21:58:21.524Z,1.60
2022-09-15T22:01:35.381Z,1.80
2022-09-15T22:04:23.380Z,1.30
2022-09-15T22:07:11.333Z,1.90
2022-09-15T22:09:59.305Z,1.50
2022-09-15T22:12:47.160Z,1.90
2022-09-15T22:15:35.562Z,2.70
2022-09-15T22:18:23.127Z,1.60
2022-09-15T22:21:24.261Z,1.40
2022-09-15T22:24:14.150Z,1.50
2022-09-15T22:27:01.862Z,2.00
2022-09-15T22:29:49.784Z,1.50
2022-09-15T22:32:37.941Z,1.60
2022-09-15T22:35:26.026Z,1.80
2022-09-15T22:38:13.832Z,1.50
2022-09-15T22:41:09.235Z,1.70
2022-09-15T22:43:57.724Z,1.60
2022-09-15T22:46:46.408Z,1.70
2022-09-15T22:49:34.372Z,1.50
2022-09-15T22:52:22.222Z,1.90
2022-09-15T22:55:10.157Z,1.70
2022-09-15T22:57:58.531Z,1.40
2022-09-15T23:00:46.501Z,2.20
2022-09-15T23:03:34.208Z,1.60
2022-09-15T23:06:23.673Z,1.60
2022-09-15T23:09:11.606Z,1.80
2022-09-15T23:11:59.685Z,1.70
2022-09-15T23:14:47.639Z,1.30
2022-09-15T23:17:35.580Z,1.50
2022-09-15T23:20:23.426Z,1.40
2022-09-15T23:23:11.501Z,1.60
2022-09-15T23:25:59.322Z,1.40
2022-09-15T23:28:49.364Z,1.50
2022-09-15T23:31:36.992Z,1.40
2022-09-15T23:34:24.855Z,1.50
2022-09-15T23:37:12.801Z,1.20
2022-09-15T23:40:00.727Z,1.40
2022-09-15T23:42:48.775Z,1.60
2022-09-15T23:45:37.152Z,1.50
2022-09-15T23:48:25.014Z,2.00
2022-09-15T23:51:13.160Z,1.50
2022-09-15T23:54:02.407Z,1.40
2022-09-15T23:56:50.208Z,1.90
2022-09-15T23:59:38.174Z,1.70
